Time;durP1;ratioP1;P1;durP2;ratioP2;P2;SDS_P1;SDS_P2;PMS_P1;PMS_P2;Temp;Humidity;BMP_temperature;BMP_pressure;BME280_temperature;BME280_humidity;BME280_pressure;Samples;Min_cycle;Max_cycle;Signal;HPM_P1;HPM_P2
2023/03/06 00:03:27;;;;;;;4.32;2.60;;;;;;;;;;4944638;28;20078;-68
2023/03/06 00:07:07;;;;;;;4.78;2.70;;;;;;;;;;4946850;28;20051;-69
2023/03/06 00:10:50;;;;;;;7.85;2.92;;;;;;;;;;4944314;28;20047;-67
2023/03/06 00:14:31;;;;;;;5.85;3.30;;;;;;;;;;4944432;28;21080;-65
2023/03/06 00:18:12;;;;;;;6.30;3.08;;;;;;;;;;4944122;28;20095;-65
2023/03/06 00:21:53;;;;;;;6.55;3.10;;;;;;;;;;4943232;28;20074;-64
2023/03/06 00:25:37;;;;;;;4.70;2.97;;;;;;;;;;4944382;28;20039;-66
2023/03/06 00:29:15;;;;;;;4.70;2.85;;;;;;;;;;4945707;28;20054;-64
2023/03/06 00:32:56;;;;;;;5.95;3.15;;;;;;;;;;4945113;28;20055;-65
2023/03/06 00:36:36;;;;;;;4.05;2.97;;;;;;;;;;4942571;28;20463;-65
2023/03/06 00:40:18;;;;;;;4.53;3.03;;;;;;;;;;4942976;28;20124;-66
2023/03/06 00:43:58;;;;;;;3.55;2.70;;;;;;;;;;4947382;28;20070;-66
2023/03/06 00:47:40;;;;;;;4.03;2.90;;;;;;;;;;4945300;28;20125;-65
2023/03/06 00:51:20;;;;;;;4.90;3.05;;;;;;;;;;4944641;28;20133;-66
2023/03/06 00:55:02;;;;;;;4.03;2.92;;;;;;;;;;4944934;28;20111;-66
2023/03/06 00:58:43;;;;;;;5.43;3.00;;;;;;;;;;4942923;28;20055;-65
2023/03/06 01:02:25;;;;;;;4.47;3.10;;;;;;;;;;4944620;28;20051;-66
2023/03/06 01:06:05;;;;;;;5.50;2.97;;;;;;;;;;4946201;28;20432;-67
2023/03/06 01:09:45;;;;;;;5.03;2.90;;;;;;;;;;4945268;28;20510;-65
2023/03/06 01:13:26;;;;;;;5.50;3.08;;;;;;;;;;4948005;28;20138;-68
2023/03/06 01:17:06;;;;;;;5.82;3.55;;;;;;;;;;4950959;28;20057;-64
2023/03/06 01:20:47;;;;;;;5.85;3.47;;;;;;;;;;4956014;28;20061;-69
2023/03/06 01:24:27;;;;;;;3.83;2.78;;;;;;;;;;4951139;28;20055;-64
2023/03/06 01:28:08;;;;;;;4.88;3.10;;;;;;;;;;4942481;28;20463;-67
2023/03/06 01:31:49;;;;;;;5.10;3.50;;;;;;;;;;4950044;28;20470;-64
2023/03/06 01:35:30;;;;;;;3.97;2.97;;;;;;;;;;4948691;28;20081;-68
2023/03/06 01:39:10;;;;;;;5.95;3.30;;;;;;;;;;4949015;28;20051;-65
2023/03/06 01:42:52;;;;;;;4.35;2.83;;;;;;;;;;4950016;28;20058;-64
2023/03/06 01:46:32;;;;;;;4.55;2.90;;;;;;;;;;4947731;28;20122;-63
2023/03/06 01:50:13;;;;;;;6.90;2.97;;;;;;;;;;4946951;28;20389;-64
2023/03/06 01:53:53;;;;;;;3.38;2.67;;;;;;;;;;4948358;28;20098;-64
2023/03/06 01:57:42;;;;;;;3.78;2.80;;;;;;;;;;4946934;28;20062;-65
2023/03/06 02:01:23;;;;;;;4.35;2.83;;;;;;;;;;4944580;28;20174;-66
2023/03/06 02:05:03;;;;;;;4.57;2.75;;;;;;;;;;4945466;28;20078;-64
2023/03/06 02:08:43;;;;;;;3.88;2.78;;;;;;;;;;4944197;28;20198;-65
2023/03/06 02:12:25;;;;;;;3.30;2.50;;;;;;;;;;4945292;28;20039;-66
2023/03/06 02:16:07;;;;;;;4.60;2.42;;;;;;;;;;4944995;28;20051;-64
2023/03/06 02:19:36;;;;;;;4.05;2.70;;;;;;;;;;4947375;28;20510;-65
2023/03/06 02:23:16;;;;;;;5.38;2.50;;;;;;;;;;4947611;28;20051;-67
2023/03/06 02:26:58;;;;;;;3.20;2.33;;;;;;;;;;4945254;28;20447;-64
2023/03/06 02:30:38;;;;;;;3.05;2.35;;;;;;;;;;4947221;28;20061;-64
2023/03/06 02:34:21;;;;;;;2.90;2.42;;;;;;;;;;4945880;28;20056;-64
2023/03/06 02:38:01;;;;;;;3.10;2.10;;;;;;;;;;4942454;28;20070;-66
2023/03/06 02:41:42;;;;;;;3.28;2.53;;;;;;;;;;4942473;28;20525;-69
2023/03/06 02:45:22;;;;;;;4.75;2.20;;;;;;;;;;4944807;28;20047;-65
2023/03/06 02:49:05;;;;;;;3.63;2.10;;;;;;;;;;4949061;28;20047;-65
2023/03/06 02:52:45;;;;;;;2.90;1.92;;;;;;;;;;4945876;28;20043;-63
2023/03/06 02:56:29;;;;;;;2.72;1.90;;;;;;;;;;4948892;28;20411;-65
2023/03/06 03:00:09;;;;;;;3.25;1.90;;;;;;;;;;4947907;28;20634;-66
2023/03/06 03:03:50;;;;;;;2.25;1.85;;;;;;;;;;4946045;28;20055;-63
2023/03/06 03:07:30;;;;;;;2.92;1.83;;;;;;;;;;4945868;28;20051;-65
2023/03/06 03:11:11;;;;;;;3.45;1.90;;;;;;;;;;4941235;28;20035;-65
2023/03/06 03:14:54;;;;;;;2.75;1.80;;;;;;;;;;4945992;28;20518;-64
2023/03/06 03:18:34;;;;;;;1.98;1.50;;;;;;;;;;4946057;28;20051;-64
2023/03/06 03:22:15;;;;;;;2.33;1.65;;;;;;;;;;4945203;28;20503;-65
2023/03/06 03:25:57;;;;;;;2.45;1.83;;;;;;;;;;4949585;28;20518;-63
2023/03/06 03:29:55;;;;;;;2.80;1.70;;;;;;;;;;4947391;28;20053;-63
2023/03/06 03:33:36;;;;;;;4.07;2.22;;;;;;;;;;4944615;28;20047;-64
2023/03/06 03:37:17;;;;;;;3.88;1.73;;;;;;;;;;4949192;28;20209;-64
2023/03/06 03:40:57;;;;;;;2.05;1.65;;;;;;;;;;4943531;28;20053;-64
2023/03/06 03:44:37;;;;;;;2.38;1.85;;;;;;;;;;4945506;28;20139;-66
2023/03/06 03:48:18;;;;;;;3.38;2.03;;;;;;;;;;4941993;28;20102;-64
2023/03/06 03:51:58;;;;;;;2.42;1.83;;;;;;;;;;4949164;28;20416;-64
2023/03/06 03:55:38;;;;;;;2.35;1.70;;;;;;;;;;4946679;28;20442;-65
2023/03/06 03:59:19;;;;;;;2.10;1.63;;;;;;;;;;4943913;28;20134;-64
2023/03/06 04:02:59;;;;;;;2.80;1.90;;;;;;;;;;4937732;28;20114;-64
2023/03/06 04:06:39;;;;;;;1.65;1.42;;;;;;;;;;4944830;28;20050;-64
2023/03/06 04:10:21;;;;;;;2.58;1.85;;;;;;;;;;4944810;28;20107;-66
2023/03/06 04:14:02;;;;;;;3.80;1.60;;;;;;;;;;4942703;28;20357;-67
2023/03/06 04:17:42;;;;;;;2.35;1.80;;;;;;;;;;4945345;28;20138;-70
2023/03/06 04:21:23;;;;;;;2.85;1.63;;;;;;;;;;4943338;28;20058;-63
2023/03/06 04:25:04;;;;;;;2.85;1.88;;;;;;;;;;4942944;28;20043;-63
2023/03/06 04:28:46;;;;;;;1.83;1.50;;;;;;;;;;4948848;28;20150;-65
2023/03/06 04:32:28;;;;;;;2.58;1.80;;;;;;;;;;4944727;28;21432;-63
2023/03/06 04:36:08;;;;;;;2.70;1.50;;;;;;;;;;4944103;28;20676;-70
2023/03/06 04:39:50;;;;;;;1.55;1.45;;;;;;;;;;4947599;28;20066;-64
2023/03/06 04:43:30;;;;;;;1.95;1.50;;;;;;;;;;4941802;28;20047;-64
2023/03/06 04:47:11;;;;;;;2.83;2.00;;;;;;;;;;4946305;28;20044;-64
2023/03/06 04:50:52;;;;;;;1.60;1.48;;;;;;;;;;4948857;29;20051;-63
2023/03/06 04:54:32;;;;;;;2.85;1.60;;;;;;;;;;4939232;28;20059;-64
2023/03/06 04:58:16;;;;;;;1.52;1.42;;;;;;;;;;4946423;28;20306;-65
2023/03/06 05:01:57;;;;;;;2.17;1.70;;;;;;;;;;4947194;28;20063;-65
2023/03/06 05:05:37;;;;;;;2.00;1.50;;;;;;;;;;4948131;28;20059;-66
2023/03/06 05:09:17;;;;;;;3.75;1.40;;;;;;;;;;4944672;29;20496;-64
2023/03/06 05:12:58;;;;;;;1.83;1.48;;;;;;;;;;4949800;28;20032;-64
2023/03/06 05:16:45;;;;;;;2.08;1.52;;;;;;;;;;4949176;28;20050;-64
2023/03/06 05:20:30;;;;;;;2.05;1.50;;;;;;;;;;4945500;28;20142;-64
2023/03/06 05:24:08;;;;;;;2.58;1.60;;;;;;;;;;4943609;28;20106;-64
2023/03/06 05:27:48;;;;;;;4.32;1.90;;;;;;;;;;4944938;28;20117;-64
2023/03/06 05:31:28;;;;;;;3.03;1.55;;;;;;;;;;4941792;28;20051;-64
2023/03/06 05:35:09;;;;;;;2.95;1.67;;;;;;;;;;4950456;29;20098;-63
2023/03/06 05:38:49;;;;;;;2.13;1.67;;;;;;;;;;4945153;29;20391;-64
2023/03/06 05:42:29;;;;;;;2.60;1.70;;;;;;;;;;4949983;29;20059;-64
2023/03/06 05:46:10;;;;;;;2.83;1.77;;;;;;;;;;4945436;29;20488;-64
2023/03/06 05:49:50;;;;;;;3.78;1.95;;;;;;;;;;4944479;28;20063;-64
2023/03/06 05:53:32;;;;;;;3.75;1.92;;;;;;;;;;4948741;29;20508;-65
2023/03/06 05:57:12;;;;;;;2.88;1.92;;;;;;;;;;4947308;28;20047;-65
2023/03/06 06:00:52;;;;;;;4.15;1.67;;;;;;;;;;4946651;28;20051;-66
2023/03/06 06:04:33;;;;;;;2.70;2.10;;;;;;;;;;4946488;28;20594;-63
2023/03/06 06:08:13;;;;;;;2.40;1.60;;;;;;;;;;4948458;29;20050;-65
2023/03/06 06:11:53;;;;;;;4.82;2.10;;;;;;;;;;4947280;28;20051;-65
2023/03/06 06:15:34;;;;;;;4.15;2.08;;;;;;;;;;4944693;28;20486;-67
2023/03/06 06:19:17;;;;;;;3.28;2.10;;;;;;;;;;4947084;28;20078;-65
2023/03/06 06:22:54;;;;;;;4.00;1.85;;;;;;;;;;4947669;29;20057;-65
2023/03/06 06:26:34;;;;;;;3.47;1.98;;;;;;;;;;4947506;28;20046;-65
2023/03/06 06:30:16;;;;;;;7.68;2.35;;;;;;;;;;4948453;28;20117;-67
2023/03/06 06:33:56;;;;;;;3.70;2.13;;;;;;;;;;4947509;28;20047;-67
2023/03/06 06:37:37;;;;;;;5.05;2.03;;;;;;;;;;4942257;28;20126;-66
2023/03/06 06:41:17;;;;;;;13.00;2.65;;;;;;;;;;4945880;28;20048;-66
2023/03/06 06:45:00;;;;;;;5.55;2.47;;;;;;;;;;4943902;28;20446;-67
2023/03/06 06:48:40;;;;;;;4.30;2.17;;;;;;;;;;4944865;28;20407;-65
2023/03/06 06:52:20;;;;;;;5.40;2.63;;;;;;;;;;4947039;28;20059;-65
2023/03/06 06:56:01;;;;;;;4.30;2.63;;;;;;;;;;4943734;29;20386;-68
2023/03/06 06:59:41;;;;;;;7.32;2.13;;;;;;;;;;4942972;28;20055;-68
2023/03/06 07:03:21;;;;;;;4.05;2.47;;;;;;;;;;4944456;28;20086;-67
2023/03/06 07:07:03;;;;;;;3.72;2.85;;;;;;;;;;4949482;28;20052;-68
2023/03/06 07:10:43;;;;;;;4.07;3.38;;;;;;;;;;4946534;29;20049;-67
2023/03/06 07:14:24;;;;;;;9.50;3.72;;;;;;;;;;4945085;28;20125;-65
2023/03/06 07:18:05;;;;;;;5.13;3.40;;;;;;;;;;4942814;28;20055;-64
2023/03/06 07:21:46;;;;;;;8.48;3.78;;;;;;;;;;4940334;28;20043;-65
2023/03/06 07:25:28;;;;;;;8.73;3.38;;;;;;;;;;4946226;28;20143;-68
2023/03/06 07:29:08;;;;;;;6.13;3.17;;;;;;;;;;4946101;28;20051;-64
2023/03/06 07:32:48;;;;;;;14.85;3.25;;;;;;;;;;4949812;28;20389;-67
2023/03/06 07:36:29;;;;;;;8.70;3.20;;;;;;;;;;4948369;28;20062;-67
2023/03/06 07:40:09;;;;;;;7.47;2.95;;;;;;;;;;4941386;28;20471;-66
2023/03/06 07:43:49;;;;;;;4.93;2.67;;;;;;;;;;4943074;28;20061;-67
2023/03/06 07:47:29;;;;;;;7.03;2.80;;;;;;;;;;4943930;28;20043;-63
2023/03/06 07:51:18;;;;;;;11.07;3.28;;;;;;;;;;4935716;28;20373;-66
2023/03/06 07:54:59;;;;;;;10.52;3.25;;;;;;;;;;4947240;28;20073;-65
2023/03/06 07:58:41;;;;;;;4.72;2.80;;;;;;;;;;4945898;28;20066;-65
2023/03/06 08:02:21;;;;;;;5.88;2.28;;;;;;;;;;4944326;29;20051;-69
2023/03/06 08:06:02;;;;;;;7.50;2.47;;;;;;;;;;4945096;28;20494;-67
2023/03/06 08:09:46;;;;;;;4.70;2.40;;;;;;;;;;4944217;29;20062;-67
2023/03/06 08:13:26;;;;;;;9.93;2.60;;;;;;;;;;4944479;29;20503;-67
2023/03/06 08:17:08;;;;;;;7.93;2.60;;;;;;;;;;4943358;28;20066;-68
2023/03/06 08:20:49;;;;;;;5.93;2.70;;;;;;;;;;4944901;28;20058;-66
2023/03/06 08:24:31;;;;;;;7.88;2.70;;;;;;;;;;4945022;28;20101;-69
2023/03/06 08:28:13;;;;;;;6.10;2.67;;;;;;;;;;4940356;28;20586;-65
2023/03/06 08:31:45;;;;;;;7.18;2.60;;;;;;;;;;4945977;29;20039;-65
2023/03/06 08:35:25;;;;;;;6.35;2.80;;;;;;;;;;4941418;28;20135;-66
2023/03/06 08:39:06;;;;;;;10.23;2.78;;;;;;;;;;4944060;28;20043;-66
2023/03/06 08:42:46;;;;;;;5.18;2.60;;;;;;;;;;4938785;28;20071;-65
2023/03/06 08:46:32;;;;;;;5.88;2.40;;;;;;;;;;4946546;28;20043;-66
2023/03/06 08:50:13;;;;;;;5.10;2.47;;;;;;;;;;4945385;28;20059;-66
2023/03/06 08:53:55;;;;;;;5.22;2.33;;;;;;;;;;4947008;28;20114;-65
2023/03/06 08:57:37;;;;;;;8.32;2.20;;;;;;;;;;4940333;28;20051;-64
2023/03/06 09:01:17;;;;;;;5.35;1.95;;;;;;;;;;4941007;28;20392;-68
2023/03/06 09:05:00;;;;;;;4.88;2.05;;;;;;;;;;4940742;28;20047;-66
2023/03/06 09:08:41;;;;;;;5.18;2.20;;;;;;;;;;4943166;28;20117;-66
2023/03/06 09:12:18;;;;;;;6.75;2.10;;;;;;;;;;4944335;28;20079;-66
2023/03/06 09:15:58;;;;;;;4.70;1.80;;;;;;;;;;4942160;28;20444;-68
2023/03/06 09:19:42;;;;;;;5.88;1.80;;;;;;;;;;4949342;28;20585;-67
2023/03/06 09:23:22;;;;;;;6.07;2.28;;;;;;;;;;4946528;28;20077;-65
2023/03/06 09:27:02;;;;;;;2.47;1.70;;;;;;;;;;4944912;28;20756;-67
2023/03/06 09:30:44;;;;;;;3.90;1.95;;;;;;;;;;4945335;28;20157;-65
2023/03/06 09:34:30;;;;;;;3.60;1.70;;;;;;;;;;4951356;28;20287;-65
2023/03/06 09:38:10;;;;;;;5.57;2.50;;;;;;;;;;4951598;29;20046;-70
2023/03/06 09:42:13;;;;;;;6.45;2.33;;;;;;;;;;4946848;28;20055;-66
2023/03/06 09:45:49;;;;;;;4.55;2.03;;;;;;;;;;4949012;28;20039;-67
2023/03/06 09:49:44;;;;;;;4.72;2.20;;;;;;;;;;4949077;29;20058;-67
2023/03/06 09:53:14;;;;;;;6.20;2.38;;;;;;;;;;4943452;28;20047;-66
2023/03/06 09:56:55;;;;;;;2.28;1.73;;;;;;;;;;4947588;29;20058;-66
2023/03/06 10:00:47;;;;;;;3.10;1.58;;;;;;;;;;4950485;28;20487;-67
2023/03/06 10:04:20;;;;;;;2.05;1.40;;;;;;;;;;4944796;29;20047;-68
2023/03/06 10:08:03;;;;;;;2.45;1.40;;;;;;;;;;4943866;28;20514;-67
2023/03/06 10:11:30;;;;;;;3.08;1.67;;;;;;;;;;4948212;28;20053;-69
2023/03/06 10:15:14;;;;;;;2.28;1.60;;;;;;;;;;4940915;28;20563;-66
2023/03/06 10:17:58;;;;;;;4.07;1.50;;;;;;;;;;4947523;28;20416;-66
2023/03/06 10:20:35;;;;;;;2.97;1.65;;;;;;;;;;4948296;28;20151;-67
2023/03/06 10:23:01;;;;;;;2.53;1.70;;;;;;;;;;4948195;28;20047;-69
2023/03/06 10:25:35;;;;;;;2.72;1.40;;;;;;;;;;4931954;28;20467;-66
2023/03/06 10:28:28;;;;;;;3.20;1.58;;;;;;;;;;4947404;28;20055;-67
2023/03/06 10:31:10;;;;;;;4.50;1.88;;;;;;;;;;4944906;29;20408;-68
2023/03/06 10:33:57;;;;;;;2.80;1.60;;;;;;;;;;4947846;29;20070;-66
2023/03/06 10:36:28;;;;;;;2.28;1.35;;;;;;;;;;4946506;28;20126;-65
2023/03/06 10:38:57;;;;;;;10.00;1.80;;;;;;;;;;4928266;29;20400;-67
2023/03/06 10:41:30;;;;;;;2.83;1.67;;;;;;;;;;4946900;28;20050;-67
2023/03/06 10:44:03;;;;;;;4.97;1.67;;;;;;;;;;4928009;28;20145;-65
2023/03/06 10:46:32;;;;;;;2.17;1.40;;;;;;;;;;4948157;28;20511;-65
2023/03/06 10:49:08;;;;;;;6.60;1.85;;;;;;;;;;4944494;28;20043;-65
2023/03/06 10:51:34;;;;;;;2.60;1.52;;;;;;;;;;4942587;28;20128;-65
2023/03/06 10:54:21;;;;;;;4.20;1.55;;;;;;;;;;4941498;28;20419;-67
2023/03/06 10:58:06;;;;;;;3.03;1.90;;;;;;;;;;4950102;28;20055;-69
2023/03/06 11:01:47;;;;;;;4.97;1.83;;;;;;;;;;4947404;28;20042;-65
2023/03/06 11:05:36;;;;;;;2.92;1.60;;;;;;;;;;4946870;29;20357;-67
2023/03/06 11:09:16;;;;;;;4.40;1.75;;;;;;;;;;4942811;28;20126;-67
2023/03/06 11:13:06;;;;;;;3.28;1.55;;;;;;;;;;4944654;28;20051;-66
2023/03/06 11:16:09;;;;;;;3.92;1.60;;;;;;;;;;4939743;28;20771;-66
2023/03/06 11:19:45;;;;;;;2.42;1.77;;;;;;;;;;4947896;28;20130;-65
2023/03/06 11:23:26;;;;;;;1.92;1.63;;;;;;;;;;4938714;28;20057;-66
2023/03/06 11:27:16;;;;;;;3.28;1.75;;;;;;;;;;4948430;28;20043;-67
2023/03/06 11:30:56;;;;;;;4.60;1.60;;;;;;;;;;4946366;29;20066;-66
2023/03/06 11:34:35;;;;;;;9.02;1.75;;;;;;;;;;4947867;28;20950;-71
2023/03/06 11:38:12;;;;;;;5.40;1.58;;;;;;;;;;4944514;28;20054;-66
2023/03/06 11:41:36;;;;;;;2.50;1.35;;;;;;;;;;4943906;28;20138;-66
2023/03/06 11:45:38;;;;;;;2.08;1.50;;;;;;;;;;4943588;29;20383;-66
2023/03/06 11:49:23;;;;;;;2.35;1.45;;;;;;;;;;4880300;29;20507;-66
2023/03/06 11:53:11;;;;;;;2.60;1.35;;;;;;;;;;4886162;29;20124;-67
2023/03/06 11:56:17;;;;;;;2.78;1.30;;;;;;;;;;4879254;29;20452;-69
2023/03/06 11:59:58;;;;;;;2.55;1.38;;;;;;;;;;4882525;29;20068;-68
2023/03/06 12:03:18;;;;;;;2.03;1.27;;;;;;;;;;4884921;29;20044;-66
2023/03/06 12:06:49;;;;;;;5.10;1.23;;;;;;;;;;4877647;29;20052;-66
2023/03/06 12:10:37;;;;;;;3.63;1.25;;;;;;;;;;4882183;29;20059;-67
2023/03/06 12:13:57;;;;;;;2.17;1.30;;;;;;;;;;4879051;29;20053;-69
2023/03/06 12:17:10;;;;;;;2.20;1.23;;;;;;;;;;4883216;29;20067;-68
2023/03/06 12:20:53;;;;;;;1.35;0.98;;;;;;;;;;4941229;28;20098;-68
2023/03/06 12:24:27;;;;;;;3.03;1.17;;;;;;;;;;4881268;29;20053;-66
2023/03/06 12:27:42;;;;;;;1.65;1.05;;;;;;;;;;4880947;29;20083;-67
2023/03/06 12:31:33;;;;;;;5.93;1.10;;;;;;;;;;4885072;29;20100;-66
2023/03/06 12:35:00;;;;;;;1.85;1.10;;;;;;;;;;4885062;29;20054;-65
2023/03/06 12:38:03;;;;;;;1.45;1.20;;;;;;;;;;4877669;29;20600;-65
2023/03/06 12:41:12;;;;;;;3.08;1.10;;;;;;;;;;4883212;29;20162;-67
2023/03/06 12:44:13;;;;;;;2.83;1.10;;;;;;;;;;4884926;29;20599;-68
2023/03/06 12:47:54;;;;;;;1.48;1.00;;;;;;;;;;4885475;29;20137;-65
2023/03/06 12:51:33;;;;;;;1.50;1.08;;;;;;;;;;4880001;29;20173;-65
2023/03/06 12:55:14;;;;;;;8.63;1.98;;;;;;;;;;4879534;29;20073;-66
2023/03/06 12:58:49;;;;;;;1.23;0.80;;;;;;;;;;4882485;29;20060;-67
2023/03/06 13:02:44;;;;;;;1.58;0.95;;;;;;;;;;4941676;28;20500;-66
2023/03/06 13:06:14;;;;;;;1.10;0.98;;;;;;;;;;4943531;28;20039;-67
2023/03/06 13:09:44;;;;;;;5.50;1.25;;;;;;;;;;4948603;29;20178;-65
2023/03/06 13:13:08;;;;;;;5.85;1.80;;;;;;;;;;4949205;28;20654;-64
2023/03/06 13:16:48;;;;;;;2.55;1.30;;;;;;;;;;4947770;28;20043;-66
2023/03/06 13:20:19;;;;;;;2.85;1.63;;;;;;;;;;4946757;29;20130;-69
2023/03/06 13:23:37;;;;;;;2.28;1.40;;;;;;;;;;4946118;28;20121;-65
2023/03/06 13:26:39;;;;;;;3.67;1.50;;;;;;;;;;4947398;28;20126;-65
2023/03/06 13:29:39;;;;;;;1.67;1.20;;;;;;;;;;4948639;29;20047;-67
2023/03/06 13:33:20;;;;;;;5.22;1.30;;;;;;;;;;4942545;28;20047;-69
2023/03/06 13:36:40;;;;;;;2.22;1.30;;;;;;;;;;4944811;28;20055;-68
2023/03/06 13:40:00;;;;;;;2.63;1.13;;;;;;;;;;4946017;28;20403;-65
2023/03/06 13:43:42;;;;;;;2.15;1.27;;;;;;;;;;4946074;28;20043;-67
2023/03/06 13:47:25;;;;;;;3.40;1.20;;;;;;;;;;4949733;28;20125;-66
2023/03/06 13:50:29;;;;;;;2.05;1.10;;;;;;;;;;4945895;28;20039;-66
2023/03/06 13:53:51;;;;;;;1.58;1.00;;;;;;;;;;4947555;28;20385;-66
2023/03/06 13:57:18;;;;;;;2.67;1.20;;;;;;;;;;4945713;29;20146;-66
2023/03/06 14:00:36;;;;;;;5.53;1.17;;;;;;;;;;4946793;28;20055;-67
2023/03/06 14:04:16;;;;;;;1.00;0.80;;;;;;;;;;4941911;28;20046;-66
2023/03/06 14:07:56;;;;;;;1.55;1.10;;;;;;;;;;4949820;29;20102;-66
2023/03/06 14:11:36;;;;;;;1.10;1.00;;;;;;;;;;4949434;28;20634;-66
2023/03/06 14:15:17;;;;;;;1.95;1.20;;;;;;;;;;4946916;28;20185;-68
2023/03/06 14:18:23;;;;;;;1.55;0.90;;;;;;;;;;4945310;29;20062;-67
2023/03/06 14:21:43;;;;;;;0.85;0.80;;;;;;;;;;4947771;28;20054;-68
2023/03/06 14:25:27;;;;;;;1.25;1.00;;;;;;;;;;4945850;29;20081;-66
2023/03/06 14:28:51;;;;;;;1.48;0.93;;;;;;;;;;4946649;28;20145;-65
2023/03/06 14:32:32;;;;;;;1.02;0.80;;;;;;;;;;4946150;28;20503;-69
2023/03/06 14:36:14;;;;;;;3.70;1.38;;;;;;;;;;4942665;28;20058;-67
2023/03/06 14:39:55;;;;;;;5.63;0.98;;;;;;;;;;4945852;28;20459;-65
2023/03/06 14:43:36;;;;;;;1.00;0.80;;;;;;;;;;4946435;28;20122;-69
2023/03/06 14:47:17;;;;;;;0.80;0.70;;;;;;;;;;4947668;28;20055;-66
2023/03/06 14:50:43;;;;;;;1.02;0.70;;;;;;;;;;4944825;28;20551;-66
2023/03/06 14:54:25;;;;;;;1.20;0.73;;;;;;;;;;4938692;28;20059;-67
2023/03/06 14:58:05;;;;;;;1.33;0.88;;;;;;;;;;4946334;29;20417;-66
2023/03/06 15:02:00;;;;;;;3.60;1.08;;;;;;;;;;4947124;29;20047;-67
2023/03/06 15:05:46;;;;;;;1.30;0.90;;;;;;;;;;4945660;28;20039;-67
2023/03/06 15:09:35;;;;;;;5.77;0.90;;;;;;;;;;4949641;28;20062;-66
2023/03/06 15:13:15;;;;;;;0.80;0.80;;;;;;;;;;4944893;29;20308;-69
2023/03/06 15:16:19;;;;;;;1.35;0.90;;;;;;;;;;4948252;29;20170;-67
2023/03/06 15:20:00;;;;;;;5.82;1.00;;;;;;;;;;4944311;28;20047;-66
2023/03/06 15:23:21;;;;;;;6.28;0.90;;;;;;;;;;4947272;29;20044;-66
2023/03/06 15:27:10;;;;;;;1.33;0.88;;;;;;;;;;4946599;28;20042;-67
2023/03/06 15:30:21;;;;;;;18.42;1.13;;;;;;;;;;4943933;28;20123;-68
2023/03/06 15:33:44;;;;;;;1.00;0.77;;;;;;;;;;4944766;29;20656;-68
2023/03/06 15:37:23;;;;;;;1.40;0.80;;;;;;;;;;4944792;29;20047;-67
2023/03/06 15:41:03;;;;;;;4.97;0.98;;;;;;;;;;4940205;28;20381;-67
2023/03/06 15:44:49;;;;;;;7.20;1.30;;;;;;;;;;4943938;28;20121;-65
2023/03/06 15:48:11;;;;;;;;;;;;;;;;;;4942359;28;20051;-67
2023/03/06 15:51:54;;;;;;;2.72;1.20;;;;;;;;;;4940926;28;20350;-66
2023/03/06 15:55:34;;;;;;;3.92;1.00;;;;;;;;;;4942634;28;20055;-65
2023/03/06 15:59:15;;;;;;;7.30;1.08;;;;;;;;;;4949199;28;20071;-64
2023/03/06 16:02:55;;;;;;;6.65;1.10;;;;;;;;;;4942161;28;20051;-65
2023/03/06 16:06:36;;;;;;;3.70;0.82;;;;;;;;;;4946178;28;20047;-65
2023/03/06 16:10:16;;;;;;;2.42;0.80;;;;;;;;;;4947064;28;20043;-65
2023/03/06 16:14:01;;;;;;;2.95;0.80;;;;;;;;;;4945341;28;20070;-63
2023/03/06 16:17:41;;;;;;;1.73;0.80;;;;;;;;;;4943881;28;20133;-64
2023/03/06 16:21:23;;;;;;;2.03;0.80;;;;;;;;;;4943849;28;20447;-65
2023/03/06 16:25:03;;;;;;;3.15;0.90;;;;;;;;;;4944453;28;20053;-65
2023/03/06 16:28:43;;;;;;;2.33;0.88;;;;;;;;;;4943144;28;20046;-65
2023/03/06 16:32:24;;;;;;;1.80;0.85;;;;;;;;;;4946779;28;20073;-65
2023/03/06 16:36:04;;;;;;;1.10;0.77;;;;;;;;;;4946681;28;20098;-65
2023/03/06 16:39:47;;;;;;;2.97;0.80;;;;;;;;;;4946495;29;20532;-65
2023/03/06 16:43:30;;;;;;;3.45;0.82;;;;;;;;;;4944402;28;20636;-65
2023/03/06 16:47:11;;;;;;;3.35;0.82;;;;;;;;;;4945325;28;20570;-65
2023/03/06 16:50:58;;;;;;;0.80;0.80;;;;;;;;;;4946079;28;20070;-66
2023/03/06 16:54:40;;;;;;;4.13;0.80;;;;;;;;;;4941013;28;20098;-65
2023/03/06 16:58:20;;;;;;;2.05;1.00;;;;;;;;;;4947140;28;20085;-65
2023/03/06 17:02:01;;;;;;;3.60;1.02;;;;;;;;;;4945021;28;20082;-67
2023/03/06 17:05:42;;;;;;;4.45;1.15;;;;;;;;;;4942905;28;20039;-62
2023/03/06 17:09:22;;;;;;;2.78;0.90;;;;;;;;;;4944525;28;20141;-64
2023/03/06 17:13:03;;;;;;;4.18;1.20;;;;;;;;;;4951130;28;20201;-64
2023/03/06 17:16:44;;;;;;;1.50;0.90;;;;;;;;;;4946665;29;20053;-64
2023/03/06 17:20:27;;;;;;;2.33;0.82;;;;;;;;;;4939104;28;20131;-63
2023/03/06 17:24:07;;;;;;;1.35;0.90;;;;;;;;;;4934674;28;20050;-65
2023/03/06 17:27:47;;;;;;;3.33;1.20;;;;;;;;;;4943286;28;20051;-63
2023/03/06 17:31:36;;;;;;;1.88;1.23;;;;;;;;;;4945367;28;20109;-66
2023/03/06 17:35:17;;;;;;;3.95;1.05;;;;;;;;;;4941406;29;20702;-66
2023/03/06 17:38:57;;;;;;;2.60;1.02;;;;;;;;;;4939636;28;20101;-66
2023/03/06 17:42:37;;;;;;;4.10;1.10;;;;;;;;;;4943038;28;20099;-65
2023/03/06 17:46:23;;;;;;;2.42;1.55;;;;;;;;;;4938948;28;20112;-63
2023/03/06 17:50:04;;;;;;;2.70;1.02;;;;;;;;;;4937002;28;20415;-66
2023/03/06 17:53:44;;;;;;;2.15;1.30;;;;;;;;;;4948060;28;20043;-64
2023/03/06 17:57:25;;;;;;;3.45;1.15;;;;;;;;;;4950323;28;20078;-66
2023/03/06 18:01:05;;;;;;;5.38;1.70;;;;;;;;;;4948372;28;20047;-64
2023/03/06 18:04:46;;;;;;;4.28;1.20;;;;;;;;;;4948679;28;20047;-64
2023/03/06 18:08:26;;;;;;;2.75;1.20;;;;;;;;;;4950171;28;20078;-65
2023/03/06 18:12:07;;;;;;;2.22;1.17;;;;;;;;;;4947567;28;20095;-66
2023/03/06 18:15:48;;;;;;;1.80;1.20;;;;;;;;;;4948342;28;20541;-67
2023/03/06 18:19:31;;;;;;;3.30;1.33;;;;;;;;;;4943847;29;20097;-63
2023/03/06 18:23:11;;;;;;;5.00;1.60;;;;;;;;;;4947960;28;20047;-65
2023/03/06 18:26:58;;;;;;;4.75;1.40;;;;;;;;;;4942684;28;20456;-66
2023/03/06 18:30:40;;;;;;;5.05;1.52;;;;;;;;;;4946796;28;20424;-66
2023/03/06 18:34:18;;;;;;;5.05;2.00;;;;;;;;;;4949951;29;20109;-63
2023/03/06 18:37:59;;;;;;;4.72;1.98;;;;;;;;;;4951605;28;20047;-65
2023/03/06 18:41:40;;;;;;;3.22;1.65;;;;;;;;;;4949256;28;20058;-64
2023/03/06 18:45:22;;;;;;;4.75;1.65;;;;;;;;;;4946611;28;20609;-65
2023/03/06 18:49:02;;;;;;;4.82;1.88;;;;;;;;;;4948626;28;20055;-67
2023/03/06 18:52:44;;;;;;;3.22;1.73;;;;;;;;;;4939401;28;20047;-67
2023/03/06 18:56:27;;;;;;;8.32;2.60;;;;;;;;;;4945385;29;20106;-67
2023/03/06 19:00:07;;;;;;;6.70;2.05;;;;;;;;;;4944426;28;20701;-66
2023/03/06 19:03:48;;;;;;;5.75;1.60;;;;;;;;;;4943806;29;20562;-67
2023/03/06 19:07:28;;;;;;;4.28;1.90;;;;;;;;;;4939521;28;20102;-67
2023/03/06 19:11:08;;;;;;;5.50;2.00;;;;;;;;;;4941382;28;20051;-65
2023/03/06 19:14:51;;;;;;;4.55;1.98;;;;;;;;;;4942308;28;20066;-66
2023/03/06 19:18:31;;;;;;;5.20;2.50;;;;;;;;;;4948984;28;20684;-68
2023/03/06 19:22:12;;;;;;;2.35;1.63;;;;;;;;;;4942380;28;20055;-65
2023/03/06 19:25:53;;;;;;;2.13;1.50;;;;;;;;;;4946053;28;20109;-68
2023/03/06 19:29:33;;;;;;;4.72;1.67;;;;;;;;;;4937926;28;20058;-67
2023/03/06 19:33:17;;;;;;;14.45;2.28;;;;;;;;;;4943226;28;20109;-68
2023/03/06 19:36:57;;;;;;;4.53;1.75;;;;;;;;;;4941524;28;20039;-67
2023/03/06 19:40:37;;;;;;;3.13;1.80;;;;;;;;;;4947122;28;20063;-67
2023/03/06 19:44:17;;;;;;;4.45;1.73;;;;;;;;;;4943743;28;20055;-68
2023/03/06 19:47:59;;;;;;;4.18;1.70;;;;;;;;;;4948548;28;20071;-68
2023/03/06 19:51:38;;;;;;;5.03;1.80;;;;;;;;;;4948529;28;20241;-69
2023/03/06 19:55:19;;;;;;;4.97;1.80;;;;;;;;;;4947215;29;20089;-66
2023/03/06 19:58:59;;;;;;;4.65;1.70;;;;;;;;;;4946845;28;20115;-69
2023/03/06 20:02:39;;;;;;;6.88;1.58;;;;;;;;;;4946445;28;20101;-68
2023/03/06 20:06:26;;;;;;;10.65;1.90;;;;;;;;;;4941457;29;20484;-67
2023/03/06 20:10:06;;;;;;;6.38;1.80;;;;;;;;;;4945956;28;20095;-67
2023/03/06 20:13:48;;;;;;;6.75;1.80;;;;;;;;;;4944297;28;20059;-68
2023/03/06 20:17:28;;;;;;;3.30;1.60;;;;;;;;;;4938954;28;20055;-67
2023/03/06 20:21:18;;;;;;;3.65;1.70;;;;;;;;;;4938611;28;20539;-65
2023/03/06 20:24:57;;;;;;;5.15;1.67;;;;;;;;;;4943257;28;20483;-68
2023/03/06 20:28:40;;;;;;;3.88;1.83;;;;;;;;;;4942355;28;20412;-67
2023/03/06 20:32:21;;;;;;;4.38;1.70;;;;;;;;;;4940170;28;20111;-68
2023/03/06 20:36:02;;;;;;;4.13;1.88;;;;;;;;;;4945325;29;20135;-67
2023/03/06 20:39:42;;;;;;;3.13;1.70;;;;;;;;;;4942311;29;20340;-68
2023/03/06 20:43:23;;;;;;;3.58;1.88;;;;;;;;;;4942542;28;20516;-67
2023/03/06 20:47:03;;;;;;;6.40;1.90;;;;;;;;;;4940618;28;20043;-68
2023/03/06 20:50:43;;;;;;;5.15;2.10;;;;;;;;;;4943237;28;20539;-66
2023/03/06 20:54:27;;;;;;;6.30;2.40;;;;;;;;;;4942117;28;20055;-65
2023/03/06 20:58:11;;;;;;;3.50;1.67;;;;;;;;;;4942780;28;20139;-66
2023/03/06 21:01:58;;;;;;;3.15;1.90;;;;;;;;;;4940875;28;20114;-67
2023/03/06 21:05:40;;;;;;;4.03;1.95;;;;;;;;;;4946893;29;20130;-68
2023/03/06 21:09:21;;;;;;;3.63;1.95;;;;;;;;;;4947137;29;20118;-68
2023/03/06 21:13:01;;;;;;;3.40;2.10;;;;;;;;;;4944386;29;20115;-66
2023/03/06 21:16:48;;;;;;;4.05;1.85;;;;;;;;;;4947295;28;20548;-71
2023/03/06 21:20:28;;;;;;;4.65;2.22;;;;;;;;;;4944703;28;20117;-66
2023/03/06 21:24:08;;;;;;;6.35;2.20;;;;;;;;;;4950123;29;20238;-65
2023/03/06 21:27:49;;;;;;;3.67;1.75;;;;;;;;;;4950820;28;20419;-67
2023/03/06 21:30:33;;;;;;;6.25;2.10;;;;;;;;;;4952431;29;20051;-69
2023/03/06 21:32:59;;;;;;;5.03;2.10;;;;;;;;;;4948496;28;20043;-68
2023/03/06 21:35:25;;;;;;;4.97;2.20;;;;;;;;;;4949050;28;20055;-66